Flight Track Log - Related Links

Times and Time Zones

All times are in EDT time to prevent confusion due to time zone crossing. See the VH-BOF flight status page for this flight to view local times or setup timezone preferences in your user account.

Time Position Orientation Groundspeed Altitude Reporting Facility
EDT Latitude Longitude Course Direction KTS MPH feet Rate Location/Type
Wed 03:52:21 AM -32.0778 116.1759 49° Northeast 4,500  Level Aus ATC (Calculated)
Wed 03:52:54 AM -31.6513 116.7568 275° West 82 94 4,700  Climbing Aus ATC (RADAR)
Wed 03:53:49 AM -31.6494 116.7325 275° West 79 91 4,500 -198 Descending Aus ATC (RADAR)
Wed 03:54:25 AM -31.6508 116.7162 264° West 84 97 4,400 -114 Descending Aus ATC (RADAR)
Wed 03:55:34 AM -31.6540 116.6846 263° West 82 94 4,300  Descending Aus ATC (RADAR)
Wed 03:55:49 AM -31.6543 116.6785 267° West 77 89 4,400 109 Climbing Aus ATC (RADAR)
Wed 03:56:29 AM -31.6576 116.6613 257° West 81 93 4,400 55 Level Aus ATC (RADAR)
Wed 03:57:39 AM -31.6670 116.6304 250° West 85 98 4,500 57 Climbing Aus ATC (RADAR)
Wed 03:58:14 AM -31.6706 116.6143 255° West 85 98 4,500 150 Level Aus ATC (RADAR)
Wed 03:58:59 AM -31.6729 116.5928 263° West 87 100 4,700 75 Climbing Aus ATC (RADAR)
Wed 03:59:34 AM -31.6744 116.5764 264° West 84 97 4,600 -104 Descending Aus ATC (RADAR)
Wed 04:00:54 AM -31.6966 116.5431 232° Southwest 101 116 4,500 -47 Descending Aus ATC (RADAR)
Wed 04:01:43 AM -31.7131 116.5259 222° Southwest 95 109 4,500 58 Level Aus ATC (RADAR)
Wed 04:02:38 AM -31.7324 116.5067 220° Southwest 101 116 4,600  Climbing Aus ATC (RADAR)
Wed 04:03:13 AM -31.7446 116.4948 220° Southwest 97 112 4,500 -67 Descending Aus ATC (RADAR)
Wed 04:04:08 AM -31.7642 116.4764 219° Southwest 102 117 4,500  Level Aus ATC (RADAR)
Wed 04:04:23 AM -31.7699 116.4716 216° Southwest 102 117 4,500 -67 Level Aus ATC (RADAR)
Wed 04:05:38 AM -31.7964 116.4450 220° Southwest 101 116 4,400 -67 Descending Aus ATC (RADAR)
Wed 04:05:53 AM -31.8021 116.4394 220° Southwest 104 120 4,400  Level Aus ATC (RADAR)
Wed 04:06:33 AM -31.8149 116.4260 222° Southwest 91 105 4,400 -253 Level Aus ATC (RADAR)
Wed 04:07:28 AM -31.8322 116.4063 224° Southwest 93 107 4,000 -267 Descending Aus ATC (RADAR)
Wed 04:08:03 AM -31.8441 116.3936 222° Southwest 97 112 4,000 -71 Level Aus ATC (RADAR)
Wed 04:08:53 AM -31.8594 116.3768 223° Southwest 89 102 3,900 -71 Descending Aus ATC (RADAR)
Wed 04:09:28 AM -31.8713 116.3653 219° Southwest 94 108 3,900 50 Level Aus ATC (RADAR)
Wed 04:10:53 AM -31.8995 116.3391 218° Southwest 89 102 4,000 120 Climbing Aus ATC (RADAR)
Wed 04:11:08 AM -31.9045 116.3345 218° Southwest 89 102 4,100 120 Climbing Aus ATC (RADAR)
Wed 04:11:43 AM -31.9170 116.3234 217° Southwest 96 110 4,100 -255 Level Aus ATC (RADAR)
Wed 04:12:42 AM -31.9392 116.3036 217° Southwest 96 110 3,700 -442 Descending Aus ATC (RADAR)
Wed 04:13:18 AM -31.9495 116.2923 223° Southwest 86 99 3,400 -419 Descending Aus ATC (RADAR)
Wed 04:14:08 AM -31.9628 116.2755 227° Southwest 83 96 3,100 -270 Descending Aus ATC (RADAR)
Wed 04:14:47 AM -31.9741 116.2623 225° Southwest 87 100 3,000 -109 Descending Aus ATC (RADAR)
Wed 04:15:58 AM -31.9982 116.2389 219° Southwest 98 113 2,900 -67 Descending Aus ATC (RADAR)
Wed 04:16:17 AM -32.0061 116.2328 213° Southwest 100 115 2,900 111 Level Aus ATC (RADAR)
Wed 04:16:52 AM -32.0217 116.2255 202° Southwest 103 119 3,000 133 Climbing Aus ATC (RADAR)
Wed 04:17:47 AM -32.0465 116.2136 202° Southwest 105 121 3,100  Climbing Aus ATC (RADAR)
Wed 04:18:22 AM -32.0633 116.2047 204° Southwest 111 128 3,000 -71 Descending Aus ATC (RADAR)
Wed 04:19:12 AM -32.0866 116.1905 207° Southwest 113 130 3,000 -141 Level Aus ATC (RADAR)
Wed 04:19:47 AM -32.1026 116.1806 208° Southwest 109 125 2,800 -339 Descending Aus ATC (RADAR)
Wed 04:21:16 AM -32.1382 116.1580 208° Southwest 100 115 2,300 -337 Descending Aus ATC (RADAR)
Wed 04:24:51 AM -32.1568 116.0442 88° East 3,100 223 Climbing Aus ATC (Calculated)
Wed 04:26:00 AM -32.1564 116.0556 88° East  Level FlightAware Approximate
Wed 04:27:00 AM -32.1561 116.0655 88° East  Level FlightAware Approximate
Wed 04:28:00 AM -32.1558 116.0754 88° East  Level FlightAware Approximate
Wed 04:29:00 AM -32.1530 116.0661 265° West  Level Estimated
Wed 04:29:23 AM -32.1643 115.9323 343° North 2,800  Level Aus ATC (Calculated)
Wed 04:29:58 AM -32.1597 115.9306 360° North 2,800 -1,884 Level Aus ATC (Calculated)
Wed 04:30:49 AM -32.1597 115.9306 163° South 100 -3,176 Descending Aus ATC (Calculated)
Wed 04:31:00 AM -32.1680 115.9336 163° South  Level FlightAware Approximate
Wed 04:31:48 AM -32.1286 115.9059 150° Southeast 100  Level Aus ATC (Calculated)
Wed 04:32:00 AM -32.1692 115.9340 163° South  Level FlightAware Approximate
Wed 04:33:00 AM -32.1372 115.9119 150° Southeast  Level FlightAware Approximate
Wed 04:34:00 AM -32.1445 115.9169 150° Southeast  Level FlightAware Approximate
Wed 04:35:00 AM -32.1517 115.9220 150° Southeast  Level FlightAware Approximate
Wed 04:36:00 AM -32.1590 115.9270 150° Southeast  Level FlightAware Approximate
Wed 04:37:00 AM -32.1662 115.9320 150° Southeast  Level FlightAware Approximate
Wed 04:38:00 AM -32.1734 115.9371 149° Southeast  Level FlightAware Approximate
Wed 04:39:00 AM -32.1662 115.9320 329° Northwest  Level FlightAware Approximate

Login

Don't have an account? Register now (free) for customized features, flight alerts, and more!